sensor_id;sensor_type;location;lat;lon;timestamp;temperature;humidity
52471;DHT22;38382;53.160;7.026;2023-06-10T00:04:59;15.00;99.90
52471;DHT22;38382;53.160;7.026;2023-06-10T00:08:00;14.90;99.90
52471;DHT22;38382;53.160;7.026;2023-06-10T00:10:47;14.90;99.90
52471;DHT22;38382;53.160;7.026;2023-06-10T00:13:25;14.80;99.90
52471;DHT22;38382;53.160;7.026;2023-06-10T00:15:51;14.80;99.90
52471;DHT22;38382;53.160;7.026;2023-06-10T00:18:17;14.80;99.90
52471;DHT22;38382;53.160;7.026;2023-06-10T00:20:43;14.70;99.90
52471;DHT22;38382;53.160;7.026;2023-06-10T00:23:14;14.70;99.90
52471;DHT22;38382;53.160;7.026;2023-06-10T00:25:40;14.60;99.90
52471;DHT22;38382;53.160;7.026;2023-06-10T00:28:06;14.60;99.90
52471;DHT22;38382;53.160;7.026;2023-06-10T00:30:32;14.50;99.90
52471;DHT22;38382;53.160;7.026;2023-06-10T00:32:58;14.50;99.90
52471;DHT22;38382;53.160;7.026;2023-06-10T00:35:23;14.50;99.90
52471;DHT22;38382;53.160;7.026;2023-06-10T00:37:49;14.40;99.90
52471;DHT22;38382;53.160;7.026;2023-06-10T00:40:15;14.30;99.90
52471;DHT22;38382;53.160;7.026;2023-06-10T00:42:53;14.30;99.90
52471;DHT22;38382;53.160;7.026;2023-06-10T00:45:18;14.20;99.90
52471;DHT22;38382;53.160;7.026;2023-06-10T00:47:44;14.10;99.90
52471;DHT22;38382;53.160;7.026;2023-06-10T00:50:10;14.10;99.90
52471;DHT22;38382;53.160;7.026;2023-06-10T00:52:45;14.10;99.90
52471;DHT22;38382;53.160;7.026;2023-06-10T00:55:12;14.00;99.90
52471;DHT22;38382;53.160;7.026;2023-06-10T00:57:37;13.90;99.90
52471;DHT22;38382;53.160;7.026;2023-06-10T01:03:29;13.90;99.90
52471;DHT22;38382;53.160;7.026;2023-06-10T01:06:09;13.80;99.90
52471;DHT22;38382;53.160;7.026;2023-06-10T01:08:55;13.80;99.90
52471;DHT22;38382;53.160;7.026;2023-06-10T01:11:29;13.70;99.90
52471;DHT22;38382;53.160;7.026;2023-06-10T01:13:58;13.70;99.90
52471;DHT22;38382;53.160;7.026;2023-06-10T01:19:29;13.60;99.90
52471;DHT22;38382;53.160;7.026;2023-06-10T01:22:03;13.50;99.90
52471;DHT22;38382;53.160;7.026;2023-06-10T01:24:32;13.40;99.90
52471;DHT22;38382;53.160;7.026;2023-06-10T01:27:12;12.90;99.90
52471;DHT22;38382;53.160;7.026;2023-06-10T01:29:54;13.40;99.90
52471;DHT22;38382;53.160;7.026;2023-06-10T01:32:55;13.30;99.90
52471;DHT22;38382;53.160;7.026;2023-06-10T01:35:25;13.30;99.90
52471;DHT22;38382;53.160;7.026;2023-06-10T01:37:54;13.30;99.90
52471;DHT22;38382;53.160;7.026;2023-06-10T01:40:20;13.10;99.90
52471;DHT22;38382;53.160;7.026;2023-06-10T01:42:46;13.10;99.90
52471;DHT22;38382;53.160;7.026;2023-06-10T01:45:12;13.10;99.90
52471;DHT22;38382;53.160;7.026;2023-06-10T01:47:44;13.00;99.90
52471;DHT22;38382;53.160;7.026;2023-06-10T01:50:10;13.00;99.90
52471;DHT22;38382;53.160;7.026;2023-06-10T01:52:36;12.90;99.90
52471;DHT22;38382;53.160;7.026;2023-06-10T01:55:03;12.90;99.90
52471;DHT22;38382;53.160;7.026;2023-06-10T01:57:29;12.90;99.90
52471;DHT22;38382;53.160;7.026;2023-06-10T01:59:55;12.90;99.90
52471;DHT22;38382;53.160;7.026;2023-06-10T02:02:20;12.80;99.90
52471;DHT22;38382;53.160;7.026;2023-06-10T02:04:47;12.80;99.90
52471;DHT22;38382;53.160;7.026;2023-06-10T02:11:03;12.80;99.90
52471;DHT22;38382;53.160;7.026;2023-06-10T02:20:31;12.60;99.90
52471;DHT22;38382;53.160;7.026;2023-06-10T02:23:07;12.50;99.90
52471;DHT22;38382;53.160;7.026;2023-06-10T02:25:32;12.60;99.90
52471;DHT22;38382;53.160;7.026;2023-06-10T02:28:02;12.40;99.90
52471;DHT22;38382;53.160;7.026;2023-06-10T02:30:32;12.40;99.90
52471;DHT22;38382;53.160;7.026;2023-06-10T02:33:01;12.40;99.90
52471;DHT22;38382;53.160;7.026;2023-06-10T02:42:22;11.80;99.90
52471;DHT22;38382;53.160;7.026;2023-06-10T02:44:50;12.40;99.90
52471;DHT22;38382;53.160;7.026;2023-06-10T02:47:16;12.30;99.90
52471;DHT22;38382;53.160;7.026;2023-06-10T02:49:42;12.20;99.90
52471;DHT22;38382;53.160;7.026;2023-06-10T02:52:13;12.20;99.90
52471;DHT22;38382;53.160;7.026;2023-06-10T02:55:07;12.80;99.90
52471;DHT22;38382;53.160;7.026;2023-06-10T02:57:32;12.10;99.90
52471;DHT22;38382;53.160;7.026;2023-06-10T03:00:08;12.10;99.90
52471;DHT22;38382;53.160;7.026;2023-06-10T03:06:10;12.10;99.90
52471;DHT22;38382;53.160;7.026;2023-06-10T03:09:12;12.00;99.90
52471;DHT22;38382;53.160;7.026;2023-06-10T03:11:44;12.00;99.90
52471;DHT22;38382;53.160;7.026;2023-06-10T03:14:10;12.00;99.90
52471;DHT22;38382;53.160;7.026;2023-06-10T03:16:39;11.90;99.90
52471;DHT22;38382;53.160;7.026;2023-06-10T03:19:17;12.00;99.90
52471;DHT22;38382;53.160;7.026;2023-06-10T03:22:28;11.90;99.90
52471;DHT22;38382;53.160;7.026;2023-06-10T03:24:34;11.90;99.90
52471;DHT22;38382;53.160;7.026;2023-06-10T03:27:19;11.90;99.90
52471;DHT22;38382;53.160;7.026;2023-06-10T03:29:45;12.00;99.90
52471;DHT22;38382;53.160;7.026;2023-06-10T03:32:17;11.90;99.90
52471;DHT22;38382;53.160;7.026;2023-06-10T03:34:43;11.90;99.90
52471;DHT22;38382;53.160;7.026;2023-06-10T04:10:24;12.10;99.90
52471;DHT22;38382;53.160;7.026;2023-06-10T04:12:53;12.10;99.90
52471;DHT22;38382;53.160;7.026;2023-06-10T04:15:19;12.10;99.90
52471;DHT22;38382;53.160;7.026;2023-06-10T04:21:36;12.00;99.90
52471;DHT22;38382;53.160;7.026;2023-06-10T04:24:02;12.20;99.90
52471;DHT22;38382;53.160;7.026;2023-06-10T04:27:05;12.30;99.90
52471;DHT22;38382;53.160;7.026;2023-06-10T04:29:31;12.10;99.90
52471;DHT22;38382;53.160;7.026;2023-06-10T04:31:57;11.80;99.90
52471;DHT22;38382;53.160;7.026;2023-06-10T04:37:43;12.40;99.90
52471;DHT22;38382;53.160;7.026;2023-06-10T04:43:44;13.00;99.90
52471;DHT22;38382;53.160;7.026;2023-06-10T04:46:46;12.60;99.90
52471;DHT22;38382;53.160;7.026;2023-06-10T04:49:14;12.60;99.90
52471;DHT22;38382;53.160;7.026;2023-06-10T04:52:25;12.70;99.90
52471;DHT22;38382;53.160;7.026;2023-06-10T04:54:51;12.80;99.90
52471;DHT22;38382;53.160;7.026;2023-06-10T05:00:51;13.00;99.90
52471;DHT22;38382;53.160;7.026;2023-06-10T05:03:23;13.10;99.90
52471;DHT22;38382;53.160;7.026;2023-06-10T05:08:25;13.20;99.90
52471;DHT22;38382;53.160;7.026;2023-06-10T05:11:31;12.50;99.90
52471;DHT22;38382;53.160;7.026;2023-06-10T05:13:57;13.20;99.90
52471;DHT22;38382;53.160;7.026;2023-06-10T05:16:44;13.30;99.90
52471;DHT22;38382;53.160;7.026;2023-06-10T05:19:09;13.40;99.90
52471;DHT22;38382;53.160;7.026;2023-06-10T05:22:01;13.50;99.90
52471;DHT22;38382;53.160;7.026;2023-06-10T05:24:28;13.50;99.90
52471;DHT22;38382;53.160;7.026;2023-06-10T05:30:28;13.50;99.90
52471;DHT22;38382;53.160;7.026;2023-06-10T05:32:54;13.60;99.90
52471;DHT22;38382;53.160;7.026;2023-06-10T05:35:23;13.70;99.90
52471;DHT22;38382;53.160;7.026;2023-06-10T05:37:48;13.70;99.90
52471;DHT22;38382;53.160;7.026;2023-06-10T05:40:14;13.80;99.90
52471;DHT22;38382;53.160;7.026;2023-06-10T05:42:40;13.80;99.90
52471;DHT22;38382;53.160;7.026;2023-06-10T05:45:06;13.80;99.90
52471;DHT22;38382;53.160;7.026;2023-06-10T05:47:32;13.80;99.90
52471;DHT22;38382;53.160;7.026;2023-06-10T05:50:01;13.90;99.90
52471;DHT22;38382;53.160;7.026;2023-06-10T06:19:02;14.40;99.90
52471;DHT22;38382;53.160;7.026;2023-06-10T06:25:40;14.50;99.90
52471;DHT22;38382;53.160;7.026;2023-06-10T06:31:17;14.70;99.90
52471;DHT22;38382;53.160;7.026;2023-06-10T06:34:23;14.70;99.90
52471;DHT22;38382;53.160;7.026;2023-06-10T06:36:57;14.40;99.90
52471;DHT22;38382;53.160;7.026;2023-06-10T06:39:43;14.80;99.90
52471;DHT22;38382;53.160;7.026;2023-06-10T06:42:21;14.80;99.90
52471;DHT22;38382;53.160;7.026;2023-06-10T06:52:10;15.20;99.90
52471;DHT22;38382;53.160;7.026;2023-06-10T07:08:53;15.60;99.90
52471;DHT22;38382;53.160;7.026;2023-06-10T07:23:27;16.10;99.90
52471;DHT22;38382;53.160;7.026;2023-06-10T07:26:04;15.70;99.90
52471;DHT22;38382;53.160;7.026;2023-06-10T07:29:36;16.00;99.90
52471;DHT22;38382;53.160;7.026;2023-06-10T07:32:08;16.10;99.90
52471;DHT22;38382;53.160;7.026;2023-06-10T07:34:46;16.80;99.90
52471;DHT22;38382;53.160;7.026;2023-06-10T07:37:12;16.90;99.90
52471;DHT22;38382;53.160;7.026;2023-06-10T07:39:38;17.30;99.90
52471;DHT22;38382;53.160;7.026;2023-06-10T07:42:04;17.10;99.90
52471;DHT22;38382;53.160;7.026;2023-06-10T07:44:59;17.20;99.90
52471;DHT22;38382;53.160;7.026;2023-06-10T07:51:38;17.60;99.90
52471;DHT22;38382;53.160;7.026;2023-06-10T07:54:07;17.90;99.90
52471;DHT22;38382;53.160;7.026;2023-06-10T07:59:43;18.00;99.90
52471;DHT22;38382;53.160;7.026;2023-06-10T08:02:10;18.50;99.90
52471;DHT22;38382;53.160;7.026;2023-06-10T08:04:59;18.70;99.90
52471;DHT22;38382;53.160;7.026;2023-06-10T08:39:15;21.30;99.90
52471;DHT22;38382;53.160;7.026;2023-06-10T09:30:10;25.30;99.90
52471;DHT22;38382;53.160;7.026;2023-06-10T09:33:24;25.60;99.90
52471;DHT22;38382;53.160;7.026;2023-06-10T09:38:49;26.00;99.90
52471;DHT22;38382;53.160;7.026;2023-06-10T09:41:35;26.20;99.90
52471;DHT22;38382;53.160;7.026;2023-06-10T09:44:24;26.40;99.50
52471;DHT22;38382;53.160;7.026;2023-06-10T09:47:27;26.70;99.20
52471;DHT22;38382;53.160;7.026;2023-06-10T09:53:19;26.90;99.10
52471;DHT22;38382;53.160;7.026;2023-06-10T09:56:38;27.10;97.80
52471;DHT22;38382;53.160;7.026;2023-06-10T09:59:54;27.00;97.90
52471;DHT22;38382;53.160;7.026;2023-06-10T10:02:50;27.40;96.80
52471;DHT22;38382;53.160;7.026;2023-06-10T10:05:48;27.60;93.80
52471;DHT22;38382;53.160;7.026;2023-06-10T10:31:46;28.90;83.60
52471;DHT22;38382;53.160;7.026;2023-06-10T17:08:57;44.10;42.40
52471;DHT22;38382;53.160;7.026;2023-06-10T17:16:02;43.60;41.90
52471;DHT22;38382;53.160;7.026;2023-06-10T17:52:06;33.80;49.70
52471;DHT22;38382;53.160;7.026;2023-06-10T17:54:47;30.90;53.60
52471;DHT22;38382;53.160;7.026;2023-06-10T18:08:38;29.20;61.20
52471;DHT22;38382;53.160;7.026;2023-06-10T18:11:13;28.90;63.00
52471;DHT22;38382;53.160;7.026;2023-06-10T18:13:41;28.70;63.90
52471;DHT22;38382;53.160;7.026;2023-06-10T18:16:14;28.40;64.30
52471;DHT22;38382;53.160;7.026;2023-06-10T18:19:48;28.30;65.30
52471;DHT22;38382;53.160;7.026;2023-06-10T19:45:09;23.90;99.90
52471;DHT22;38382;53.160;7.026;2023-06-10T19:48:02;23.40;99.90
52471;DHT22;38382;53.160;7.026;2023-06-10T20:09:41;22.40;99.90
52471;DHT22;38382;53.160;7.026;2023-06-10T20:12:13;22.20;99.90
52471;DHT22;38382;53.160;7.026;2023-06-10T20:48:49;21.10;99.90
52471;DHT22;38382;53.160;7.026;2023-06-10T20:51:15;21.00;99.90
52471;DHT22;38382;53.160;7.026;2023-06-10T20:53:41;20.90;99.90
52471;DHT22;38382;53.160;7.026;2023-06-10T20:56:07;20.80;99.90
52471;DHT22;38382;53.160;7.026;2023-06-10T20:58:32;20.80;99.90
52471;DHT22;38382;53.160;7.026;2023-06-10T21:00:59;20.70;99.90
52471;DHT22;38382;53.160;7.026;2023-06-10T21:06:23;20.60;99.90
52471;DHT22;38382;53.160;7.026;2023-06-10T21:08:49;20.60;99.90
52471;DHT22;38382;53.160;7.026;2023-06-10T21:11:16;20.50;99.90
52471;DHT22;38382;53.160;7.026;2023-06-10T21:13:42;20.50;99.90
52471;DHT22;38382;53.160;7.026;2023-06-10T21:31:01;20.20;99.90
52471;DHT22;38382;53.160;7.026;2023-06-10T21:33:29;20.20;99.90
52471;DHT22;38382;53.160;7.026;2023-06-10T21:35:57;20.10;99.90
52471;DHT22;38382;53.160;7.026;2023-06-10T21:38:29;20.00;99.90
52471;DHT22;38382;53.160;7.026;2023-06-10T21:40:58;20.20;99.90
52471;DHT22;38382;53.160;7.026;2023-06-10T21:43:24;20.00;99.90
52471;DHT22;38382;53.160;7.026;2023-06-10T21:45:53;20.00;99.90
52471;DHT22;38382;53.160;7.026;2023-06-10T21:48:19;19.90;99.90
52471;DHT22;38382;53.160;7.026;2023-06-10T21:50:45;19.90;99.90
52471;DHT22;38382;53.160;7.026;2023-06-10T21:53:16;19.80;99.90
52471;DHT22;38382;53.160;7.026;2023-06-10T21:55:44;19.80;99.90
52471;DHT22;38382;53.160;7.026;2023-06-10T22:02:10;19.20;99.90
52471;DHT22;38382;53.160;7.026;2023-06-10T22:04:37;19.60;99.90
52471;DHT22;38382;53.160;7.026;2023-06-10T22:07:13;19.60;99.90
52471;DHT22;38382;53.160;7.026;2023-06-10T22:09:48;19.50;99.90
52471;DHT22;38382;53.160;7.026;2023-06-10T22:12:17;19.50;99.90
52471;DHT22;38382;53.160;7.026;2023-06-10T22:14:43;19.40;99.90
52471;DHT22;38382;53.160;7.026;2023-06-10T22:17:10;19.30;99.90
52471;DHT22;38382;53.160;7.026;2023-06-10T22:22:57;19.30;99.90
52471;DHT22;38382;53.160;7.026;2023-06-10T22:25:23;19.30;99.90
52471;DHT22;38382;53.160;7.026;2023-06-10T22:27:49;19.20;99.90
52471;DHT22;38382;53.160;7.026;2023-06-10T22:30:15;19.10;99.90
52471;DHT22;38382;53.160;7.026;2023-06-10T22:32:57;19.10;99.90
52471;DHT22;38382;53.160;7.026;2023-06-10T22:35:36;19.10;99.90
52471;DHT22;38382;53.160;7.026;2023-06-10T22:38:02;19.10;99.90
52471;DHT22;38382;53.160;7.026;2023-06-10T22:40:55;19.00;99.90
52471;DHT22;38382;53.160;7.026;2023-06-10T22:43:21;19.00;99.90
52471;DHT22;38382;53.160;7.026;2023-06-10T22:45:47;18.90;99.90
52471;DHT22;38382;53.160;7.026;2023-06-10T22:48:12;18.90;99.90
52471;DHT22;38382;53.160;7.026;2023-06-10T22:50:38;18.90;99.90
52471;DHT22;38382;53.160;7.026;2023-06-10T22:53:07;18.80;99.90
52471;DHT22;38382;53.160;7.026;2023-06-10T22:55:32;18.80;99.90
52471;DHT22;38382;53.160;7.026;2023-06-10T22:57:58;18.80;99.90
52471;DHT22;38382;53.160;7.026;2023-06-10T23:00:26;18.80;99.90
52471;DHT22;38382;53.160;7.026;2023-06-10T23:02:52;18.70;99.90
52471;DHT22;38382;53.160;7.026;2023-06-10T23:05:18;18.70;99.90
52471;DHT22;38382;53.160;7.026;2023-06-10T23:07:44;18.80;99.90
52471;DHT22;38382;53.160;7.026;2023-06-10T23:10:09;18.70;99.90
52471;DHT22;38382;53.160;7.026;2023-06-10T23:12:35;18.70;99.90
52471;DHT22;38382;53.160;7.026;2023-06-10T23:15:09;18.70;99.90
52471;DHT22;38382;53.160;7.026;2023-06-10T23:17:34;18.70;99.90
52471;DHT22;38382;53.160;7.026;2023-06-10T23:20:00;18.70;99.90
52471;DHT22;38382;53.160;7.026;2023-06-10T23:22:30;18.70;99.90
52471;DHT22;38382;53.160;7.026;2023-06-10T23:24:57;18.70;99.90
52471;DHT22;38382;53.160;7.026;2023-06-10T23:27:26;18.70;99.90
52471;DHT22;38382;53.160;7.026;2023-06-10T23:29:53;18.70;99.90
52471;DHT22;38382;53.160;7.026;2023-06-10T23:32:20;18.70;99.90
52471;DHT22;38382;53.160;7.026;2023-06-10T23:34:45;18.70;99.90
52471;DHT22;38382;53.160;7.026;2023-06-10T23:37:21;18.70;99.90
52471;DHT22;38382;53.160;7.026;2023-06-10T23:39:53;18.70;99.90
52471;DHT22;38382;53.160;7.026;2023-06-10T23:42:19;18.70;99.90
52471;DHT22;38382;53.160;7.026;2023-06-10T23:44:47;18.60;99.90
